sensor_id;sensor_type;location;lat;lon;timestamp;pressure;altitude;pressure_sealevel;temperature
7389;BMP180;3735;50.136;11.062;2024-03-02T00:00:10;97084.00;;;4.10
7389;BMP180;3735;50.136;11.062;2024-03-02T00:02:46;97083.00;;;4.20
7389;BMP180;3735;50.136;11.062;2024-03-02T00:05:17;97074.00;;;4.20
7389;BMP180;3735;50.136;11.062;2024-03-02T00:07:45;97060.00;;;4.20
7389;BMP180;3735;50.136;11.062;2024-03-02T00:10:16;97071.00;;;4.20
7389;BMP180;3735;50.136;11.062;2024-03-02T00:12:47;97064.00;;;4.20
7389;BMP180;3735;50.136;11.062;2024-03-02T00:15:42;97059.00;;;4.20
7389;BMP180;3735;50.136;11.062;2024-03-02T00:18:31;97051.00;;;4.20
7389;BMP180;3735;50.136;11.062;2024-03-02T00:20:58;97062.00;;;4.10
7389;BMP180;3735;50.136;11.062;2024-03-02T00:23:27;97065.00;;;4.20
7389;BMP180;3735;50.136;11.062;2024-03-02T00:25:55;97056.00;;;4.20
7389;BMP180;3735;50.136;11.062;2024-03-02T00:28:36;97073.00;;;4.20
7389;BMP180;3735;50.136;11.062;2024-03-02T00:31:05;97075.00;;;4.20
7389;BMP180;3735;50.136;11.062;2024-03-02T00:33:36;97074.00;;;4.30
7389;BMP180;3735;50.136;11.062;2024-03-02T00:36:04;97071.00;;;4.30
7389;BMP180;3735;50.136;11.062;2024-03-02T00:38:31;97068.00;;;4.30
7389;BMP180;3735;50.136;11.062;2024-03-02T00:41:07;97068.00;;;4.40
7389;BMP180;3735;50.136;11.062;2024-03-02T00:43:47;97069.00;;;4.40
7389;BMP180;3735;50.136;11.062;2024-03-02T00:46:17;97058.00;;;4.40
7389;BMP180;3735;50.136;11.062;2024-03-02T00:48:53;97066.00;;;4.40
7389;BMP180;3735;50.136;11.062;2024-03-02T00:51:22;97068.00;;;4.50
7389;BMP180;3735;50.136;11.062;2024-03-02T00:53:48;97062.00;;;4.50
7389;BMP180;3735;50.136;11.062;2024-03-02T00:56:14;97063.00;;;4.60
7389;BMP180;3735;50.136;11.062;2024-03-02T00:58:40;97070.00;;;4.60
7389;BMP180;3735;50.136;11.062;2024-03-02T01:01:06;97072.00;;;4.50
7389;BMP180;3735;50.136;11.062;2024-03-02T01:03:34;97064.00;;;4.50
7389;BMP180;3735;50.136;11.062;2024-03-02T01:05:59;97076.00;;;4.60
7389;BMP180;3735;50.136;11.062;2024-03-02T01:08:25;97077.00;;;4.60
7389;BMP180;3735;50.136;11.062;2024-03-02T01:10:52;97072.00;;;4.60
7389;BMP180;3735;50.136;11.062;2024-03-02T01:13:17;97074.00;;;4.70
7389;BMP180;3735;50.136;11.062;2024-03-02T01:15:43;97082.00;;;4.60
7389;BMP180;3735;50.136;11.062;2024-03-02T01:18:09;97071.00;;;4.60
7389;BMP180;3735;50.136;11.062;2024-03-02T01:20:35;97082.00;;;4.70
7389;BMP180;3735;50.136;11.062;2024-03-02T01:23:01;97079.00;;;4.60
7389;BMP180;3735;50.136;11.062;2024-03-02T01:25:27;97082.00;;;4.70
7389;BMP180;3735;50.136;11.062;2024-03-02T01:27:52;97075.00;;;4.70
7389;BMP180;3735;50.136;11.062;2024-03-02T01:30:18;97078.00;;;4.70
7389;BMP180;3735;50.136;11.062;2024-03-02T01:32:44;97089.00;;;4.70
7389;BMP180;3735;50.136;11.062;2024-03-02T01:35:10;97071.00;;;4.70
7389;BMP180;3735;50.136;11.062;2024-03-02T01:37:36;97046.00;;;4.70
7389;BMP180;3735;50.136;11.062;2024-03-02T01:40:01;97087.00;;;4.70
7389;BMP180;3735;50.136;11.062;2024-03-02T01:42:28;97074.00;;;4.70
7389;BMP180;3735;50.136;11.062;2024-03-02T01:44:54;97086.00;;;4.70
7389;BMP180;3735;50.136;11.062;2024-03-02T01:47:20;97082.00;;;4.70
7389;BMP180;3735;50.136;11.062;2024-03-02T01:49:46;97080.00;;;4.80
7389;BMP180;3735;50.136;11.062;2024-03-02T01:52:12;97080.00;;;4.70
7389;BMP180;3735;50.136;11.062;2024-03-02T01:54:37;97077.00;;;4.70
7389;BMP180;3735;50.136;11.062;2024-03-02T01:57:04;97079.00;;;4.70
7389;BMP180;3735;50.136;11.062;2024-03-02T01:59:29;97075.00;;;4.80
7389;BMP180;3735;50.136;11.062;2024-03-02T02:01:55;97079.00;;;4.80
7389;BMP180;3735;50.136;11.062;2024-03-02T02:04:21;97078.00;;;4.70
7389;BMP180;3735;50.136;11.062;2024-03-02T02:06:52;97080.00;;;4.70
7389;BMP180;3735;50.136;11.062;2024-03-02T02:09:18;97087.00;;;4.70
7389;BMP180;3735;50.136;11.062;2024-03-02T02:11:44;97084.00;;;4.80
7389;BMP180;3735;50.136;11.062;2024-03-02T02:14:10;97087.00;;;4.70
7389;BMP180;3735;50.136;11.062;2024-03-02T02:16:36;97089.00;;;4.80
7389;BMP180;3735;50.136;11.062;2024-03-02T02:19:02;97077.00;;;4.80
7389;BMP180;3735;50.136;11.062;2024-03-02T02:21:28;97082.00;;;4.90
7389;BMP180;3735;50.136;11.062;2024-03-02T02:23:54;97084.00;;;4.90
7389;BMP180;3735;50.136;11.062;2024-03-02T02:26:20;97080.00;;;5.00
7389;BMP180;3735;50.136;11.062;2024-03-02T02:28:45;97071.00;;;5.00
7389;BMP180;3735;50.136;11.062;2024-03-02T02:31:14;97075.00;;;5.00
7389;BMP180;3735;50.136;11.062;2024-03-02T02:33:40;97069.00;;;5.00
7389;BMP180;3735;50.136;11.062;2024-03-02T02:36:06;97086.00;;;5.00
7389;BMP180;3735;50.136;11.062;2024-03-02T02:38:38;97074.00;;;5.10
7389;BMP180;3735;50.136;11.062;2024-03-02T02:41:04;97081.00;;;5.10
7389;BMP180;3735;50.136;11.062;2024-03-02T02:43:30;97077.00;;;5.10
7389;BMP180;3735;50.136;11.062;2024-03-02T02:45:55;97071.00;;;5.10
7389;BMP180;3735;50.136;11.062;2024-03-02T02:48:21;97081.00;;;5.10
7389;BMP180;3735;50.136;11.062;2024-03-02T02:50:47;97079.00;;;5.10
7389;BMP180;3735;50.136;11.062;2024-03-02T02:53:13;97073.00;;;5.20
7389;BMP180;3735;50.136;11.062;2024-03-02T02:55:39;97069.00;;;5.20
7389;BMP180;3735;50.136;11.062;2024-03-02T02:58:09;97066.00;;;5.20
7389;BMP180;3735;50.136;11.062;2024-03-02T03:00:35;97068.00;;;5.20
7389;BMP180;3735;50.136;11.062;2024-03-02T03:03:02;97069.00;;;5.20
7389;BMP180;3735;50.136;11.062;2024-03-02T03:05:28;97070.00;;;5.20
7389;BMP180;3735;50.136;11.062;2024-03-02T03:07:54;97080.00;;;5.20
7389;BMP180;3735;50.136;11.062;2024-03-02T03:10:20;97072.00;;;5.20
7389;BMP180;3735;50.136;11.062;2024-03-02T03:12:48;97069.00;;;5.20
7389;BMP180;3735;50.136;11.062;2024-03-02T03:15:15;97068.00;;;5.20
7389;BMP180;3735;50.136;11.062;2024-03-02T03:17:42;97078.00;;;5.20
7389;BMP180;3735;50.136;11.062;2024-03-02T03:20:09;97070.00;;;5.20
7389;BMP180;3735;50.136;11.062;2024-03-02T03:22:40;97074.00;;;5.20
7389;BMP180;3735;50.136;11.062;2024-03-02T03:25:07;97069.00;;;5.20
7389;BMP180;3735;50.136;11.062;2024-03-02T03:27:36;97067.00;;;5.20
7389;BMP180;3735;50.136;11.062;2024-03-02T03:30:02;97062.00;;;5.20
7389;BMP180;3735;50.136;11.062;2024-03-02T03:32:28;97060.00;;;5.20
7389;BMP180;3735;50.136;11.062;2024-03-02T03:34:54;97059.00;;;5.20
7389;BMP180;3735;50.136;11.062;2024-03-02T03:37:19;97052.00;;;5.20
7389;BMP180;3735;50.136;11.062;2024-03-02T03:39:45;97057.00;;;5.20
7389;BMP180;3735;50.136;11.062;2024-03-02T03:42:11;97056.00;;;5.20
7389;BMP180;3735;50.136;11.062;2024-03-02T03:44:37;97059.00;;;5.10
7389;BMP180;3735;50.136;11.062;2024-03-02T03:47:02;97060.00;;;5.10
7389;BMP180;3735;50.136;11.062;2024-03-02T03:49:28;97049.00;;;5.10
7389;BMP180;3735;50.136;11.062;2024-03-02T03:51:54;97054.00;;;5.10
7389;BMP180;3735;50.136;11.062;2024-03-02T03:54:20;97054.00;;;5.00
7389;BMP180;3735;50.136;11.062;2024-03-02T03:56:45;97052.00;;;5.00
7389;BMP180;3735;50.136;11.062;2024-03-02T03:59:11;97042.00;;;5.10
7389;BMP180;3735;50.136;11.062;2024-03-02T04:01:37;97050.00;;;5.00
7389;BMP180;3735;50.136;11.062;2024-03-02T04:04:03;97044.00;;;5.10
7389;BMP180;3735;50.136;11.062;2024-03-02T04:06:29;97049.00;;;5.10
7389;BMP180;3735;50.136;11.062;2024-03-02T04:08:55;97052.00;;;5.10
7389;BMP180;3735;50.136;11.062;2024-03-02T04:11:21;97049.00;;;5.10
7389;BMP180;3735;50.136;11.062;2024-03-02T04:13:47;97047.00;;;5.10
7389;BMP180;3735;50.136;11.062;2024-03-02T04:16:13;97050.00;;;5.10
7389;BMP180;3735;50.136;11.062;2024-03-02T04:18:39;97048.00;;;5.00
7389;BMP180;3735;50.136;11.062;2024-03-02T04:21:05;97050.00;;;4.90
7389;BMP180;3735;50.136;11.062;2024-03-02T04:23:31;97066.00;;;4.90
7389;BMP180;3735;50.136;11.062;2024-03-02T04:25:57;97063.00;;;4.90
7389;BMP180;3735;50.136;11.062;2024-03-02T04:28:22;97057.00;;;4.80
7389;BMP180;3735;50.136;11.062;2024-03-02T04:30:48;97065.00;;;4.70
7389;BMP180;3735;50.136;11.062;2024-03-02T04:33:14;97068.00;;;4.60
7389;BMP180;3735;50.136;11.062;2024-03-02T04:35:40;97070.00;;;4.50
7389;BMP180;3735;50.136;11.062;2024-03-02T04:38:05;97076.00;;;4.40
7389;BMP180;3735;50.136;11.062;2024-03-02T04:40:31;97068.00;;;4.40
7389;BMP180;3735;50.136;11.062;2024-03-02T04:42:57;97077.00;;;4.30
7389;BMP180;3735;50.136;11.062;2024-03-02T04:45:24;97082.00;;;4.20
7389;BMP180;3735;50.136;11.062;2024-03-02T04:47:50;97087.00;;;4.20
7389;BMP180;3735;50.136;11.062;2024-03-02T04:50:16;97077.00;;;4.20
7389;BMP180;3735;50.136;11.062;2024-03-02T04:52:42;97083.00;;;4.30
7389;BMP180;3735;50.136;11.062;2024-03-02T04:55:08;97069.00;;;4.30
7389;BMP180;3735;50.136;11.062;2024-03-02T04:57:56;97086.00;;;4.20
7389;BMP180;3735;50.136;11.062;2024-03-02T05:00:22;97083.00;;;4.30
7389;BMP180;3735;50.136;11.062;2024-03-02T05:02:48;97086.00;;;4.20
7389;BMP180;3735;50.136;11.062;2024-03-02T05:05:14;97076.00;;;4.20
7389;BMP180;3735;50.136;11.062;2024-03-02T05:07:43;97077.00;;;4.30
7389;BMP180;3735;50.136;11.062;2024-03-02T05:10:10;97084.00;;;4.30
7389;BMP180;3735;50.136;11.062;2024-03-02T05:12:38;97088.00;;;4.30
7389;BMP180;3735;50.136;11.062;2024-03-02T05:15:12;97085.00;;;4.30
7389;BMP180;3735;50.136;11.062;2024-03-02T05:17:39;97084.00;;;4.30
7389;BMP180;3735;50.136;11.062;2024-03-02T05:20:08;97090.00;;;4.20
7389;BMP180;3735;50.136;11.062;2024-03-02T05:22:35;97099.00;;;4.20
7389;BMP180;3735;50.136;11.062;2024-03-02T05:25:05;97095.00;;;4.10
7389;BMP180;3735;50.136;11.062;2024-03-02T05:27:31;97106.00;;;4.10
7389;BMP180;3735;50.136;11.062;2024-03-02T05:29:59;97090.00;;;4.00
7389;BMP180;3735;50.136;11.062;2024-03-02T05:32:25;97086.00;;;4.00
7389;BMP180;3735;50.136;11.062;2024-03-02T05:34:53;97100.00;;;3.90
7389;BMP180;3735;50.136;11.062;2024-03-02T05:37:19;97101.00;;;3.90
7389;BMP180;3735;50.136;11.062;2024-03-02T05:39:50;97091.00;;;3.90
7389;BMP180;3735;50.136;11.062;2024-03-02T05:42:16;97096.00;;;3.80
7389;BMP180;3735;50.136;11.062;2024-03-02T05:44:42;97101.00;;;3.80
7389;BMP180;3735;50.136;11.062;2024-03-02T05:47:08;97108.00;;;3.90
7389;BMP180;3735;50.136;11.062;2024-03-02T05:49:36;97104.00;;;3.80
7389;BMP180;3735;50.136;11.062;2024-03-02T05:52:02;97110.00;;;3.80
7389;BMP180;3735;50.136;11.062;2024-03-02T05:54:28;97105.00;;;3.80
7389;BMP180;3735;50.136;11.062;2024-03-02T05:56:54;97113.00;;;3.70
7389;BMP180;3735;50.136;11.062;2024-03-02T05:59:20;97114.00;;;3.70
7389;BMP180;3735;50.136;11.062;2024-03-02T06:01:46;97116.00;;;3.70
7389;BMP180;3735;50.136;11.062;2024-03-02T06:04:13;97110.00;;;3.80
7389;BMP180;3735;50.136;11.062;2024-03-02T06:06:40;97109.00;;;3.80
7389;BMP180;3735;50.136;11.062;2024-03-02T06:09:09;97113.00;;;3.80
7389;BMP180;3735;50.136;11.062;2024-03-02T06:11:40;97122.00;;;3.80
7389;BMP180;3735;50.136;11.062;2024-03-02T06:14:07;97108.00;;;3.80
7389;BMP180;3735;50.136;11.062;2024-03-02T06:16:34;97120.00;;;3.80
7389;BMP180;3735;50.136;11.062;2024-03-02T06:19:01;97104.00;;;3.90
7389;BMP180;3735;50.136;11.062;2024-03-02T06:21:37;97113.00;;;3.90
7389;BMP180;3735;50.136;11.062;2024-03-02T06:24:04;97120.00;;;3.80
7389;BMP180;3735;50.136;11.062;2024-03-02T06:26:32;97102.00;;;3.80
7389;BMP180;3735;50.136;11.062;2024-03-02T06:28:58;97122.00;;;3.90
7389;BMP180;3735;50.136;11.062;2024-03-02T06:31:25;97115.00;;;3.80
7389;BMP180;3735;50.136;11.062;2024-03-02T06:33:51;97104.00;;;3.90
7389;BMP180;3735;50.136;11.062;2024-03-02T06:36:16;97106.00;;;3.90
7389;BMP180;3735;50.136;11.062;2024-03-02T06:38:42;97117.00;;;3.90
7389;BMP180;3735;50.136;11.062;2024-03-02T06:41:14;97127.00;;;3.80
7389;BMP180;3735;50.136;11.062;2024-03-02T06:43:43;97107.00;;;4.00
7389;BMP180;3735;50.136;11.062;2024-03-02T06:46:08;97115.00;;;4.10
7389;BMP180;3735;50.136;11.062;2024-03-02T06:48:35;97121.00;;;4.10
7389;BMP180;3735;50.136;11.062;2024-03-02T06:51:00;97118.00;;;4.20
7389;BMP180;3735;50.136;11.062;2024-03-02T06:53:26;97122.00;;;4.30
7389;BMP180;3735;50.136;11.062;2024-03-02T06:55:53;97118.00;;;4.40
7389;BMP180;3735;50.136;11.062;2024-03-02T06:58:24;97118.00;;;4.50
7389;BMP180;3735;50.136;11.062;2024-03-02T07:00:50;97113.00;;;4.70
7389;BMP180;3735;50.136;11.062;2024-03-02T07:03:16;97118.00;;;4.80
7389;BMP180;3735;50.136;11.062;2024-03-02T07:05:43;97120.00;;;4.90
7389;BMP180;3735;50.136;11.062;2024-03-02T07:08:09;97125.00;;;4.90
7389;BMP180;3735;50.136;11.062;2024-03-02T07:10:34;97115.00;;;5.00
7389;BMP180;3735;50.136;11.062;2024-03-02T07:13:00;97122.00;;;5.10
7389;BMP180;3735;50.136;11.062;2024-03-02T07:15:26;97124.00;;;5.10
7389;BMP180;3735;50.136;11.062;2024-03-02T07:18:26;97133.00;;;5.20
7389;BMP180;3735;50.136;11.062;2024-03-02T07:20:52;97129.00;;;5.30
7389;BMP180;3735;50.136;11.062;2024-03-02T07:23:18;97124.00;;;5.30
7389;BMP180;3735;50.136;11.062;2024-03-02T07:25:45;97124.00;;;5.40
7389;BMP180;3735;50.136;11.062;2024-03-02T07:28:10;97132.00;;;5.50
7389;BMP180;3735;50.136;11.062;2024-03-02T07:30:36;97135.00;;;5.60
7389;BMP180;3735;50.136;11.062;2024-03-02T07:33:04;97129.00;;;5.80
7389;BMP180;3735;50.136;11.062;2024-03-02T07:35:30;97136.00;;;6.00
7389;BMP180;3735;50.136;11.062;2024-03-02T07:37:57;97131.00;;;6.30
7389;BMP180;3735;50.136;11.062;2024-03-02T07:40:24;97141.00;;;6.50
7389;BMP180;3735;50.136;11.062;2024-03-02T07:42:49;97137.00;;;6.70
7389;BMP180;3735;50.136;11.062;2024-03-02T07:45:15;97132.00;;;7.00
7389;BMP180;3735;50.136;11.062;2024-03-02T07:47:41;97142.00;;;7.10
7389;BMP180;3735;50.136;11.062;2024-03-02T07:50:07;97142.00;;;7.30
7389;BMP180;3735;50.136;11.062;2024-03-02T07:52:33;97137.00;;;7.70
7389;BMP180;3735;50.136;11.062;2024-03-02T07:54:59;97135.00;;;7.90
7389;BMP180;3735;50.136;11.062;2024-03-02T07:57:25;97139.00;;;8.00
7389;BMP180;3735;50.136;11.062;2024-03-02T07:59:51;97143.00;;;8.10
7389;BMP180;3735;50.136;11.062;2024-03-02T08:02:18;97139.00;;;8.20
7389;BMP180;3735;50.136;11.062;2024-03-02T08:04:43;97138.00;;;8.20
7389;BMP180;3735;50.136;11.062;2024-03-02T08:07:11;97141.00;;;8.20
7389;BMP180;3735;50.136;11.062;2024-03-02T08:09:37;97143.00;;;8.10
7389;BMP180;3735;50.136;11.062;2024-03-02T08:12:03;97143.00;;;8.10
7389;BMP180;3735;50.136;11.062;2024-03-02T08:14:29;97142.00;;;8.30
7389;BMP180;3735;50.136;11.062;2024-03-02T08:16:55;97134.00;;;8.90
7389;BMP180;3735;50.136;11.062;2024-03-02T08:19:20;97132.00;;;9.90
7389;BMP180;3735;50.136;11.062;2024-03-02T08:21:46;97127.00;;;11.30
7389;BMP180;3735;50.136;11.062;2024-03-02T08:24:12;97124.00;;;12.30
7389;BMP180;3735;50.136;11.062;2024-03-02T08:26:38;97116.00;;;13.60
7389;BMP180;3735;50.136;11.062;2024-03-02T08:29:05;97113.00;;;14.70
7389;BMP180;3735;50.136;11.062;2024-03-02T08:31:31;97115.00;;;15.50
7389;BMP180;3735;50.136;11.062;2024-03-02T08:33:56;97123.00;;;16.50
7389;BMP180;3735;50.136;11.062;2024-03-02T08:36:23;97107.00;;;16.60
7389;BMP180;3735;50.136;11.062;2024-03-02T08:38:50;97105.00;;;17.30
7389;BMP180;3735;50.136;11.062;2024-03-02T08:41:16;97107.00;;;17.50
7389;BMP180;3735;50.136;11.062;2024-03-02T08:43:43;97108.00;;;17.50
7389;BMP180;3735;50.136;11.062;2024-03-02T08:46:09;97114.00;;;17.40
7389;BMP180;3735;50.136;11.062;2024-03-02T08:48:34;97118.00;;;17.70
7389;BMP180;3735;50.136;11.062;2024-03-02T08:51:00;97104.00;;;17.70
7389;BMP180;3735;50.136;11.062;2024-03-02T08:53:26;97122.00;;;17.60
7389;BMP180;3735;50.136;11.062;2024-03-02T08:55:52;97119.00;;;17.10
7389;BMP180;3735;50.136;11.062;2024-03-02T08:58:18;97109.00;;;16.30
7389;BMP180;3735;50.136;11.062;2024-03-02T09:00:44;97132.00;;;15.70
7389;BMP180;3735;50.136;11.062;2024-03-02T09:03:10;97135.00;;;15.10
7389;BMP180;3735;50.136;11.062;2024-03-02T09:05:36;97138.00;;;15.50
7389;BMP180;3735;50.136;11.062;2024-03-02T09:08:01;97138.00;;;15.40
7389;BMP180;3735;50.136;11.062;2024-03-02T09:10:29;97137.00;;;15.70
7389;BMP180;3735;50.136;11.062;2024-03-02T09:12:55;97133.00;;;16.50
7389;BMP180;3735;50.136;11.062;2024-03-02T09:15:21;97138.00;;;15.90
7389;BMP180;3735;50.136;11.062;2024-03-02T09:17:46;97142.00;;;15.80
7389;BMP180;3735;50.136;11.062;2024-03-02T09:20:12;97134.00;;;15.60
7389;BMP180;3735;50.136;11.062;2024-03-02T09:22:39;97139.00;;;15.40
7389;BMP180;3735;50.136;11.062;2024-03-02T09:25:05;97142.00;;;15.20
7389;BMP180;3735;50.136;11.062;2024-03-02T09:27:37;97142.00;;;14.90
7389;BMP180;3735;50.136;11.062;2024-03-02T09:30:08;97147.00;;;14.70
7389;BMP180;3735;50.136;11.062;2024-03-02T09:32:36;97142.00;;;14.30
7389;BMP180;3735;50.136;11.062;2024-03-02T09:35:02;97145.00;;;14.40
7389;BMP180;3735;50.136;11.062;2024-03-02T09:37:28;97143.00;;;14.00
7389;BMP180;3735;50.136;11.062;2024-03-02T09:39:54;97142.00;;;14.00
7389;BMP180;3735;50.136;11.062;2024-03-02T09:42:21;97147.00;;;13.80
7389;BMP180;3735;50.136;11.062;2024-03-02T09:44:48;97158.00;;;13.90
7389;BMP180;3735;50.136;11.062;2024-03-02T09:47:14;97159.00;;;13.50
7389;BMP180;3735;50.136;11.062;2024-03-02T09:49:40;97159.00;;;13.50
7389;BMP180;3735;50.136;11.062;2024-03-02T09:52:07;97148.00;;;13.70
7389;BMP180;3735;50.136;11.062;2024-03-02T09:54:33;97158.00;;;13.80
7389;BMP180;3735;50.136;11.062;2024-03-02T09:56:59;97163.00;;;13.80
7389;BMP180;3735;50.136;11.062;2024-03-02T09:59:27;97162.00;;;13.60
7389;BMP180;3735;50.136;11.062;2024-03-02T10:02:00;97169.00;;;13.10
7389;BMP180;3735;50.136;11.062;2024-03-02T10:04:29;97159.00;;;13.30
7389;BMP180;3735;50.136;11.062;2024-03-02T10:07:14;97154.00;;;13.40
7389;BMP180;3735;50.136;11.062;2024-03-02T10:09:42;97155.00;;;13.50
7389;BMP180;3735;50.136;11.062;2024-03-02T10:12:09;97150.00;;;13.40
7389;BMP180;3735;50.136;11.062;2024-03-02T10:14:37;97152.00;;;13.40
7389;BMP180;3735;50.136;11.062;2024-03-02T10:17:05;97147.00;;;13.30
7389;BMP180;3735;50.136;11.062;2024-03-02T10:19:32;97143.00;;;13.40
7389;BMP180;3735;50.136;11.062;2024-03-02T10:22:07;97156.00;;;13.40
7389;BMP180;3735;50.136;11.062;2024-03-02T10:24:42;97144.00;;;13.40
7389;BMP180;3735;50.136;11.062;2024-03-02T10:29:41;97145.00;;;13.30
7389;BMP180;3735;50.136;11.062;2024-03-02T10:32:11;97143.00;;;13.40
7389;BMP180;3735;50.136;11.062;2024-03-02T10:34:42;97146.00;;;13.40
7389;BMP180;3735;50.136;11.062;2024-03-02T10:37:08;97142.00;;;13.60
7389;BMP180;3735;50.136;11.062;2024-03-02T10:39:36;97142.00;;;13.70
7389;BMP180;3735;50.136;11.062;2024-03-02T10:42:03;97137.00;;;13.80
7389;BMP180;3735;50.136;11.062;2024-03-02T10:44:30;97133.00;;;13.90
7389;BMP180;3735;50.136;11.062;2024-03-02T10:47:01;97141.00;;;14.00
7389;BMP180;3735;50.136;11.062;2024-03-02T10:49:30;97141.00;;;14.20
7389;BMP180;3735;50.136;11.062;2024-03-02T10:51:58;97144.00;;;14.30
7389;BMP180;3735;50.136;11.062;2024-03-02T10:54:25;97139.00;;;14.60
7389;BMP180;3735;50.136;11.062;2024-03-02T10:57:03;97142.00;;;14.30
7389;BMP180;3735;50.136;11.062;2024-03-02T10:59:35;97140.00;;;14.50
7389;BMP180;3735;50.136;11.062;2024-03-02T11:02:03;97141.00;;;14.50
7389;BMP180;3735;50.136;11.062;2024-03-02T11:04:31;97137.00;;;14.40
7389;BMP180;3735;50.136;11.062;2024-03-02T11:07:18;97135.00;;;14.30
7389;BMP180;3735;50.136;11.062;2024-03-02T11:09:54;97137.00;;;14.50
7389;BMP180;3735;50.136;11.062;2024-03-02T11:12:49;97136.00;;;14.30
7389;BMP180;3735;50.136;11.062;2024-03-02T11:15:18;97127.00;;;14.40
7389;BMP180;3735;50.136;11.062;2024-03-02T11:17:48;97124.00;;;14.30
7389;BMP180;3735;50.136;11.062;2024-03-02T11:20:15;97126.00;;;14.60
7389;BMP180;3735;50.136;11.062;2024-03-02T11:22:41;97121.00;;;14.80
7389;BMP180;3735;50.136;11.062;2024-03-02T11:25:27;97126.00;;;14.90
7389;BMP180;3735;50.136;11.062;2024-03-02T11:33:01;97110.00;;;15.20
7389;BMP180;3735;50.136;11.062;2024-03-02T11:35:38;97109.00;;;15.50
7389;BMP180;3735;50.136;11.062;2024-03-02T11:38:09;97104.00;;;15.50
7389;BMP180;3735;50.136;11.062;2024-03-02T11:40:35;97097.00;;;15.30
7389;BMP180;3735;50.136;11.062;2024-03-02T11:43:02;97103.00;;;15.50
7389;BMP180;3735;50.136;11.062;2024-03-02T11:45:28;97100.00;;;15.60
7389;BMP180;3735;50.136;11.062;2024-03-02T11:47:56;97102.00;;;15.70
7389;BMP180;3735;50.136;11.062;2024-03-02T11:50:46;97099.00;;;15.70
7389;BMP180;3735;50.136;11.062;2024-03-02T11:53:12;97091.00;;;15.80
7389;BMP180;3735;50.136;11.062;2024-03-02T11:55:40;97074.00;;;15.70
7389;BMP180;3735;50.136;11.062;2024-03-02T11:58:13;97095.00;;;15.70
7389;BMP180;3735;50.136;11.062;2024-03-02T12:00:39;97090.00;;;15.50
7389;BMP180;3735;50.136;11.062;2024-03-02T12:03:12;97084.00;;;15.50
7389;BMP180;3735;50.136;11.062;2024-03-02T12:05:39;97081.00;;;15.30
7389;BMP180;3735;50.136;11.062;2024-03-02T12:08:08;97078.00;;;15.30
7389;BMP180;3735;50.136;11.062;2024-03-02T12:10:36;97079.00;;;15.40
7389;BMP180;3735;50.136;11.062;2024-03-02T12:13:05;97082.00;;;15.50
7389;BMP180;3735;50.136;11.062;2024-03-02T12:15:35;97075.00;;;15.30
7389;BMP180;3735;50.136;11.062;2024-03-02T12:18:05;97070.00;;;15.30
7389;BMP180;3735;50.136;11.062;2024-03-02T12:20:32;97067.00;;;15.30
7389;BMP180;3735;50.136;11.062;2024-03-02T12:23:01;97062.00;;;15.40
7389;BMP180;3735;50.136;11.062;2024-03-02T12:25:31;97061.00;;;15.80
7389;BMP180;3735;50.136;11.062;2024-03-02T12:28:00;97061.00;;;16.10
7389;BMP180;3735;50.136;11.062;2024-03-02T12:30:30;97056.00;;;16.40
7389;BMP180;3735;50.136;11.062;2024-03-02T12:32:56;97047.00;;;17.00
7389;BMP180;3735;50.136;11.062;2024-03-02T12:35:25;97054.00;;;17.10
7389;BMP180;3735;50.136;11.062;2024-03-02T12:37:53;97051.00;;;17.00
7389;BMP180;3735;50.136;11.062;2024-03-02T12:40:21;97049.00;;;17.40
7389;BMP180;3735;50.136;11.062;2024-03-02T12:42:49;97038.00;;;17.20
7389;BMP180;3735;50.136;11.062;2024-03-02T12:45:16;97041.00;;;17.70
7389;BMP180;3735;50.136;11.062;2024-03-02T12:47:42;97030.00;;;18.30
7389;BMP180;3735;50.136;11.062;2024-03-02T12:50:09;97038.00;;;18.10
7389;BMP180;3735;50.136;11.062;2024-03-02T12:52:36;97046.00;;;17.90
7389;BMP180;3735;50.136;11.062;2024-03-02T12:55:04;97033.00;;;18.40
7389;BMP180;3735;50.136;11.062;2024-03-02T12:57:32;97031.00;;;18.00
7389;BMP180;3735;50.136;11.062;2024-03-02T13:00:06;97033.00;;;18.40
7389;BMP180;3735;50.136;11.062;2024-03-02T13:02:36;97033.00;;;18.20
7389;BMP180;3735;50.136;11.062;2024-03-02T13:05:03;97029.00;;;17.90
7389;BMP180;3735;50.136;11.062;2024-03-02T13:07:29;97025.00;;;17.60
7389;BMP180;3735;50.136;11.062;2024-03-02T13:09:56;97022.00;;;17.20
7389;BMP180;3735;50.136;11.062;2024-03-02T13:12:24;97021.00;;;16.80
7389;BMP180;3735;50.136;11.062;2024-03-02T13:14:53;97025.00;;;16.90
7389;BMP180;3735;50.136;11.062;2024-03-02T13:17:20;97020.00;;;16.80
7389;BMP180;3735;50.136;11.062;2024-03-02T13:19:53;97015.00;;;16.90
7389;BMP180;3735;50.136;11.062;2024-03-02T13:22:20;97018.00;;;16.80
7389;BMP180;3735;50.136;11.062;2024-03-02T13:24:48;97024.00;;;16.60
7389;BMP180;3735;50.136;11.062;2024-03-02T13:27:14;97014.00;;;16.50
7389;BMP180;3735;50.136;11.062;2024-03-02T13:29:40;97016.00;;;16.30
7389;BMP180;3735;50.136;11.062;2024-03-02T13:32:06;97018.00;;;16.20
7389;BMP180;3735;50.136;11.062;2024-03-02T13:34:32;97017.00;;;16.00
7389;BMP180;3735;50.136;11.062;2024-03-02T13:36:58;97019.00;;;16.30
7389;BMP180;3735;50.136;11.062;2024-03-02T13:39:23;97013.00;;;16.30
7389;BMP180;3735;50.136;11.062;2024-03-02T13:41:49;97006.00;;;16.70
7389;BMP180;3735;50.136;11.062;2024-03-02T13:44:21;97007.00;;;16.50
7389;BMP180;3735;50.136;11.062;2024-03-02T13:46:47;97008.00;;;16.80
7389;BMP180;3735;50.136;11.062;2024-03-02T13:49:14;97011.00;;;17.20
7389;BMP180;3735;50.136;11.062;2024-03-02T13:51:45;96992.00;;;17.70
7389;BMP180;3735;50.136;11.062;2024-03-02T13:54:11;97003.00;;;18.10
7389;BMP180;3735;50.136;11.062;2024-03-02T13:56:37;97003.00;;;18.70
7389;BMP180;3735;50.136;11.062;2024-03-02T13:59:05;96996.00;;;19.00
7389;BMP180;3735;50.136;11.062;2024-03-02T14:01:31;96987.00;;;18.80
7389;BMP180;3735;50.136;11.062;2024-03-02T14:03:58;96998.00;;;18.30
7389;BMP180;3735;50.136;11.062;2024-03-02T14:06:24;96989.00;;;17.60
7389;BMP180;3735;50.136;11.062;2024-03-02T14:08:53;97010.00;;;17.20
7389;BMP180;3735;50.136;11.062;2024-03-02T14:11:18;97001.00;;;16.60
7389;BMP180;3735;50.136;11.062;2024-03-02T14:13:45;97004.00;;;16.40
7389;BMP180;3735;50.136;11.062;2024-03-02T14:16:19;97004.00;;;15.80
7389;BMP180;3735;50.136;11.062;2024-03-02T14:18:45;97008.00;;;15.40
7389;BMP180;3735;50.136;11.062;2024-03-02T14:21:11;97000.00;;;15.30
7389;BMP180;3735;50.136;11.062;2024-03-02T14:23:37;97012.00;;;14.90
7389;BMP180;3735;50.136;11.062;2024-03-02T14:26:08;97000.00;;;14.70
7389;BMP180;3735;50.136;11.062;2024-03-02T14:28:34;97008.00;;;14.70
7389;BMP180;3735;50.136;11.062;2024-03-02T14:31:03;97001.00;;;14.70
7389;BMP180;3735;50.136;11.062;2024-03-02T14:33:29;97003.00;;;14.60
7389;BMP180;3735;50.136;11.062;2024-03-02T14:35:56;97008.00;;;14.50
7389;BMP180;3735;50.136;11.062;2024-03-02T14:38:22;97000.00;;;14.30